Time;durP1;ratioP1;P1;durP2;ratioP2;P2;SDS_P1;SDS_P2;PMS_P1;PMS_P2;Temp;Humidity;BMP_temperature;BMP_pressure;BME280_temperature;BME280_humidity;BME280_pressure;Samples;Min_cycle;Max_cycle;Signal;HPM_P1;HPM_P2
2021/11/22 00:03:59;;;;;;;48.83;11.37;;;;;;;5.95;99.71;100442.86;5236444;56;1139286;-76
2021/11/22 00:09:05;;;;;;;29.40;12.27;;;;;;;6.00;99.68;100451.75;5236437;56;1141317;-79
2021/11/22 00:14:11;;;;;;;44.03;18.17;;;;;;;5.99;99.23;100448.75;5236288;56;1141064;-78
2021/11/22 00:19:16;;;;;;;55.20;21.53;;;;;;;6.03;99.71;100455.98;5236633;56;1139049;-75
2021/11/22 00:24:22;;;;;;;51.87;20.47;;;;;;;6.04;99.75;100457.67;5158880;56;1137197;-81
2021/11/22 00:29:27;;;;;;;45.88;17.17;;;;;;;5.95;99.70;100472.20;5149950;57;1137253;-76
2021/11/22 00:34:41;;;;;;;40.70;16.93;;;;;;;5.96;99.90;100479.11;5148203;57;1139326;-79
2021/11/22 00:39:44;;;;;;;27.25;11.70;;;;;;;5.98;99.69;100485.12;5147146;57;1139278;-82
2021/11/22 00:44:52;;;;;;;26.48;11.85;;;;;;;6.03;100.00;100492.27;5149687;57;1139055;-79
2021/11/22 00:49:58;;;;;;;25.80;12.33;;;;;;;6.08;100.00;100496.79;5149808;57;1141114;-79
2021/11/22 00:55:05;;;;;;;26.27;14.10;;;;;;;6.08;100.00;100494.16;5149787;57;1139037;-77
2021/11/22 01:00:14;;;;;;;44.17;17.70;;;;;;;6.10;100.00;100498.02;5149737;57;1141153;-81
2021/11/22 01:05:19;;;;;;;47.20;16.43;;;;;;;6.07;99.62;100513.94;5149671;57;1141491;-79
2021/11/22 01:10:26;;;;;;;74.40;23.60;;;;;;;6.03;99.99;100515.89;5149719;57;1139298;-83
2021/11/22 01:15:33;;;;;;;88.37;30.48;;;;;;;6.06;100.00;100532.79;5149543;57;1139077;-79
2021/11/22 01:20:41;;;;;;;54.80;16.47;;;;;;;6.08;100.00;100526.14;5162985;56;1139085;-75
2021/11/22 01:25:46;;;;;;;42.53;14.10;;;;;;;5.99;99.74;100534.91;5235947;56;1141132;-80
2021/11/22 01:30:52;;;;;;;30.80;13.63;;;;;;;5.82;99.70;100539.41;5236190;56;1139071;-82
2021/11/22 01:35:59;;;;;;;33.97;14.07;;;;;;;5.74;99.95;100541.64;5236162;56;1138481;-79
2021/11/22 01:41:05;;;;;;;30.90;12.97;;;;;;;5.77;100.00;100538.85;5236132;56;1137400;-77
2021/11/22 01:46:18;;;;;;;35.00;14.20;;;;;;;5.64;100.00;100540.88;5236114;56;1136927;-76
2021/11/22 01:51:24;;;;;;;33.70;13.00;;;;;;;5.59;100.00;100533.72;5236648;56;1141082;-86
2021/11/22 01:56:30;;;;;;;29.37;12.37;;;;;;;5.63;100.00;100531.30;5236089;56;1143233;-82
2021/11/22 02:01:36;;;;;;;28.23;10.73;;;;;;;5.65;100.00;100538.59;5235628;56;1143325;-85
2021/11/22 02:06:43;;;;;;;20.03;8.97;;;;;;;5.54;100.00;100557.20;5235914;56;1143471;-79
2021/11/22 02:11:50;;;;;;;23.80;11.10;;;;;;;5.34;100.00;100560.95;5236031;56;1141690;-78
2021/11/22 02:16:56;;;;;;;20.90;10.57;;;;;;;5.30;100.00;100551.55;5235983;56;1141309;-81
2021/11/22 02:22:03;;;;;;;21.93;10.83;;;;;;;5.29;100.00;100565.59;5198585;56;1141111;-80
2021/11/22 02:27:10;;;;;;;24.47;10.73;;;;;;;5.25;100.00;100582.41;5123473;57;1143200;-78
2021/11/22 02:32:15;;;;;;;24.63;10.00;;;;;;;5.34;100.00;100595.05;5135779;57;1143207;-81
2021/11/22 02:37:22;;;;;;;17.87;7.83;;;;;;;5.46;100.00;100598.77;5054492;58;1143515;-80
2021/11/22 02:42:31;;;;;;;23.73;8.47;;;;;;;5.55;100.00;100602.17;5130048;57;1141650;-77
2021/11/22 02:47:38;;;;;;;20.93;9.03;;;;;;;5.66;100.00;100604.57;5129822;57;1141113;-76
2021/11/22 02:52:45;;;;;;;14.77;6.57;;;;;;;5.73;100.00;100605.55;5129832;57;1138775;-80
2021/11/22 02:57:52;;;;;;;15.37;7.17;;;;;;;5.72;100.00;100611.27;5129798;57;1141565;-83
2021/11/22 03:03:00;;;;;;;13.80;7.33;;;;;;;5.79;100.00;100611.78;5129903;57;1141162;-85
2021/11/22 03:08:06;;;;;;;16.23;7.93;;;;;;;5.86;100.00;100622.30;5129714;57;1141258;-83
2021/11/22 03:13:11;;;;;;;23.47;8.60;;;;;;;5.89;100.00;100628.73;5116548;57;1141354;-81
2021/11/22 03:18:17;;;;;;;17.57;7.83;;;;;;;5.85;100.00;100629.79;5052654;58;1139304;-79
2021/11/22 03:23:23;;;;;;;16.07;6.67;;;;;;;5.81;100.00;100636.13;5147017;57;1139179;-82
2021/11/22 03:28:30;;;;;;;21.23;6.93;;;;;;;5.81;100.00;100640.92;5163143;56;1141346;-77
2021/11/22 03:33:35;;;;;;;18.20;6.67;;;;;;;5.81;100.00;100648.80;4972850;59;1141137;-83
2021/11/22 03:38:42;;;;;;;23.50;8.43;;;;;;;5.84;100.00;100652.56;5172264;57;1141099;-85
2021/11/22 03:43:57;;;;;;;17.30;7.73;;;;;;;5.90;100.00;100654.05;5165697;57;1141252;-80
2021/11/22 03:48:55;;;;;;;11.77;6.43;;;;;;;5.88;100.00;100673.81;5173532;56;1139129;-80
2021/11/22 03:54:01;;;;;;;15.17;6.43;;;;;;;5.79;100.00;100683.95;5158455;56;1139230;-75
2021/11/22 03:59:08;;;;;;;15.30;6.57;;;;;;;5.72;100.00;100686.05;5147350;57;1141407;-81
2021/11/22 04:04:15;;;;;;;20.07;8.67;;;;;;;5.66;100.00;100695.09;5175955;56;1141041;-86
2021/11/22 04:09:21;;;;;;;25.20;10.87;;;;;;;5.65;100.00;100704.39;5156513;57;1141292;-80
2021/11/22 04:14:27;;;;;;;21.40;9.20;;;;;;;5.61;100.00;100706.79;5179065;57;1143459;-84
2021/11/22 04:19:33;;;;;;;18.97;9.53;;;;;;;5.57;100.00;100712.66;5149284;57;1138926;-78
2021/11/22 04:24:40;;;;;;;9.53;4.97;;;;;;;5.53;100.00;100716.83;5135365;56;1139118;-78
2021/11/22 04:29:46;;;;;;;10.43;6.07;;;;;;;5.48;100.00;100724.13;5206064;57;1139035;-80
2021/11/22 04:34:52;;;;;;;13.73;5.87;;;;;;;5.45;100.00;100724.28;4974956;58;1141133;-84
2021/11/22 04:39:58;;;;;;;14.00;7.13;;;;;;;5.47;100.00;100726.36;5206263;57;1141136;-75
2021/11/22 04:45:06;;;;;;;14.83;6.00;;;;;;;5.48;100.00;100735.92;4983065;58;1141406;-77
2021/11/22 04:50:12;;;;;;;15.60;7.10;;;;;;;5.38;100.00;100747.34;4987461;58;1137263;-84
2021/11/22 04:55:21;;;;;;;6.97;4.73;;;;;;;5.29;100.00;100750.00;4987365;58;1139151;-76
2021/11/22 05:00:27;;;;;;;6.23;4.30;;;;;;;5.30;100.00;100753.01;4987396;58;1136988;-79
2021/11/22 05:05:33;;;;;;;15.47;5.00;;;;;;;5.36;100.00;100763.63;4987531;58;1136986;-82
2021/11/22 05:10:44;;;;;;;16.53;8.40;;;;;;;5.37;100.00;100771.88;4987235;58;1139067;-80
2021/11/22 05:15:51;;;;;;;15.33;6.00;;;;;;;5.26;100.00;100780.31;4987391;58;1137069;-81
2021/11/22 05:20:57;;;;;;;16.23;5.70;;;;;;;5.21;100.00;100786.24;4987259;58;1139465;-77
2021/11/22 05:26:02;;;;;;;16.30;5.33;;;;;;;5.11;100.00;100791.58;5067414;57;1139105;-81
2021/11/22 05:31:08;;;;;;;11.10;4.83;;;;;;;5.06;100.00;100800.59;5248411;56;1138953;-76
2021/11/22 05:36:14;;;;;;;13.60;5.63;;;;;;;5.11;100.00;100812.55;5248435;56;1139150;-78
2021/11/22 05:41:19;;;;;;;12.17;5.17;;;;;;;5.09;100.00;100820.95;5248404;56;1137192;-74
2021/11/22 05:46:25;;;;;;;9.03;4.60;;;;;;;5.02;100.00;100829.22;5248547;56;1136995;-73
2021/11/22 05:51:31;;;;;;;10.93;5.33;;;;;;;4.91;100.00;100838.89;5248422;56;1134895;-83
2021/11/22 05:56:37;;;;;;;19.07;7.30;;;;;;;4.87;100.00;100843.92;5248261;56;1139322;-80
2021/11/22 06:01:43;;;;;;;23.63;8.57;;;;;;;4.92;100.00;100852.39;5248395;56;1139046;-81
2021/11/22 06:06:48;;;;;;;19.98;8.03;;;;;;;4.91;100.00;100860.71;5248222;56;1137042;-78
2021/11/22 06:11:54;;;;;;;18.13;8.00;;;;;;;4.84;100.00;100870.27;5248238;56;1137006;-73
2021/11/22 06:17:00;;;;;;;19.40;7.80;;;;;;;4.79;100.00;100876.19;5248461;56;1135120;-75
2021/11/22 19:14:07;;;;;;;8.90;4.83;;;;;;;3.88;97.41;101474.80;5288174;54;46562;-83
2021/11/22 19:19:16;;;;;;;6.93;3.50;;;;;;;3.86;97.36;101492.31;5129702;56;1128658;-85
2021/11/22 19:24:21;;;;;;;13.77;5.23;;;;;;;3.82;97.36;101494.63;5078412;57;1132820;-83
2021/11/22 19:29:27;;;;;;;9.13;4.37;;;;;;;3.82;97.43;101501.17;4917041;59;1135209;-84
2021/11/22 19:34:33;;;;;;;25.87;11.90;;;;;;;3.76;97.40;101508.39;5155461;57;1132759;-84
2021/11/22 19:39:40;;;;;;;49.07;20.73;;;;;;;3.77;97.15;101509.64;5124586;57;1134922;-85
2021/11/22 19:44:47;;;;;;;39.70;17.47;;;;;;;3.77;96.99;101516.19;5051635;57;1134843;-84
2021/11/22 19:49:53;;;;;;;46.20;20.57;;;;;;;3.78;96.73;101520.97;5068968;58;1138942;-83
2021/11/22 19:54:59;;;;;;;19.50;9.03;;;;;;;3.74;95.75;101524.13;5123310;57;1138929;-84
2021/11/22 20:00:08;;;;;;;103.60;39.00;;;;;;;3.67;95.95;101534.38;5134476;57;1136526;-84
2021/11/22 20:05:15;;;;;;;33.23;13.23;;;;;;;3.60;95.88;101550.34;5124572;57;1141266;-85
2021/11/22 20:10:26;;;;;;;127.83;47.87;;;;;;;3.48;95.57;101545.92;5135673;57;1139001;-86
2021/11/22 20:15:30;;;;;;;21.30;8.87;;;;;;;3.49;95.68;101551.55;5134188;57;1141045;-84
2021/11/22 20:20:36;;;;;;;11.67;4.97;;;;;;;3.43;95.64;101550.88;5003235;57;1136879;-84
2021/11/22 20:25:42;;;;;;;21.37;6.73;;;;;;;3.40;96.03;101553.13;4919636;59;1136918;-85
2021/11/22 20:30:47;;;;;;;13.27;5.77;;;;;;;3.36;95.95;101553.30;4938090;58;1137080;-84
2021/11/22 20:35:55;;;;;;;11.33;4.03;;;;;;;3.35;96.26;101560.28;5014160;58;1137203;-85
2021/11/22 20:41:02;;;;;;;4.70;2.85;;;;;;;3.29;96.13;101566.14;4981468;58;1137284;-83
2021/11/22 20:46:08;;;;;;;12.90;5.17;;;;;;;3.21;95.94;101570.77;5028036;58;1134881;-85
2021/11/22 20:51:14;;;;;;;5.30;2.67;;;;;;;3.10;95.84;101570.62;5037506;58;1137082;-88
2021/11/22 20:56:20;;;;;;;4.43;2.90;;;;;;;3.03;95.92;101587.40;4967245;58;1134904;-86
2021/11/22 21:01:26;;;;;;;6.57;2.90;;;;;;;2.94;96.18;101590.26;4991678;59;1134874;-85
2021/11/22 21:06:32;;;;;;;5.17;3.53;;;;;;;2.87;95.92;101589.19;5002141;58;1134807;-85
2021/11/22 21:11:37;;;;;;;9.73;3.90;;;;;;;2.81;95.75;101591.52;5049067;58;1135043;-85
2021/11/22 21:16:48;;;;;;;11.40;4.73;;;;;;;2.73;95.62;101593.50;5049069;58;1134801;-85
2021/11/22 21:21:52;;;;;;;7.37;3.47;;;;;;;2.67;95.52;101593.66;5141301;57;1136995;-87
2021/11/22 21:26:58;;;;;;;7.00;2.83;;;;;;;2.52;95.61;101591.47;5072720;58;1134594;-88
2021/11/22 21:32:05;;;;;;;6.63;3.47;;;;;;;2.41;95.91;101593.94;5042730;58;1134893;-85
2021/11/22 21:37:11;;;;;;;6.17;3.37;;;;;;;2.39;96.14;101587.89;5071357;58;1134866;-87
2021/11/22 21:42:18;;;;;;;8.50;3.37;;;;;;;2.28;96.02;101579.95;5070775;58;1135183;-89
2021/11/22 21:47:24;;;;;;;10.70;4.03;;;;;;;2.20;96.12;101567.53;5066290;58;1135101;-87
2021/11/22 21:52:29;;;;;;;29.33;6.27;;;;;;;2.13;96.35;101575.98;5035286;58;1137222;-85
2021/11/22 21:57:35;;;;;;;41.40;12.17;;;;;;;2.09;96.73;101579.56;5071514;58;1136940;-86
2021/11/22 22:02:42;;;;;;;6.10;2.80;;;;;;;2.03;96.92;101570.13;4990371;58;1139209;-86
2021/11/22 22:07:51;;;;;;;89.43;19.90;;;;;;;2.04;96.79;101572.28;5071282;58;1134880;-86
2021/11/22 22:12:57;;;;;;;56.97;13.27;;;;;;;2.03;96.96;101569.27;4990761;58;1139067;-85
2021/11/22 22:18:03;;;;;;;42.33;10.85;;;;;;;2.00;97.05;101571.50;5071946;58;1138991;-86
2021/11/22 22:23:09;;;;;;;43.70;11.33;;;;;;;1.99;97.09;101573.70;5124019;57;1138974;-86
2021/11/22 22:28:14;;;;;;;30.47;8.80;;;;;;;1.91;97.22;101571.75;5151856;57;1138991;-85
2021/11/22 22:33:20;;;;;;;11.60;4.57;;;;;;;1.87;97.59;101578.38;5068026;58;1136895;-85
2021/11/22 22:38:26;;;;;;;23.63;7.27;;;;;;;1.81;97.51;101584.62;5065516;58;1136946;-84
2021/11/22 22:43:32;;;;;;;8.90;4.67;;;;;;;1.79;97.58;101588.16;5106212;57;1137278;-85
2021/11/22 22:48:39;;;;;;;49.80;12.07;;;;;;;1.74;97.55;101594.33;5175292;56;1135157;-85
2021/11/22 22:53:45;;;;;;;43.23;12.43;;;;;;;1.67;97.61;101588.87;5151540;57;1139013;-85
2021/11/22 22:58:53;;;;;;;15.40;5.53;;;;;;;1.64;97.94;101586.77;5151759;57;1137023;-86
2021/11/22 23:03:58;;;;;;;14.10;4.80;;;;;;;1.64;97.87;101599.36;5067829;57;1134857;-82
2021/11/22 23:09:07;;;;;;;6.27;3.37;;;;;;;1.61;97.98;101593.36;5068224;57;1134923;-84
2021/11/22 23:14:13;;;;;;;14.63;7.17;;;;;;;1.55;98.07;101581.75;5068010;58;1132860;-81
2021/11/22 23:19:19;;;;;;;12.73;4.37;;;;;;;1.52;98.17;101574.03;5067959;57;1135146;-84
2021/11/22 23:24:25;;;;;;;12.05;5.97;;;;;;;1.50;98.35;101578.42;5014691;58;1135443;-83
2021/11/22 23:29:31;;;;;;;10.20;4.80;;;;;;;1.48;98.19;101574.98;4998776;59;1134931;-83
2021/11/22 23:34:37;;;;;;;9.20;4.10;;;;;;;1.40;98.25;101564.72;4998747;58;1135010;-82
2021/11/22 23:39:43;;;;;;;12.90;6.27;;;;;;;1.32;98.76;101553.19;4998477;59;1132816;-84
2021/11/22 23:44:50;;;;;;;13.70;5.87;;;;;;;1.23;99.17;101552.52;4998832;59;1135180;-85
2021/11/22 23:49:55;;;;;;;9.97;5.57;;;;;;;1.18;98.86;101555.69;4998592;58;1135137;-86
2021/11/22 23:55:01;;;;;;;12.37;4.73;;;;;;;1.15;99.04;101545.34;4998579;59;1132761;-86
